Cypress Valley, Arkansas
Current Conditions -  °F | °C
As of 10:53 AM on Thursday 27 Nov 2014 (Local Time) from KRUE Reporting Station
Clear Clear  
Wind Chill: 37°   Ceiling: Unl
Heat Index: 42°   Visibility: 10mi
Dew Point: 26°   Wind: 8mph
Humidity: 53%   Direction: 340°NNW
Pressure: 30.55"   Gusts: NA
Location:  35.2722°N, 92.6766°W
Report Text: KRUE 271653Z AUTO 34007KT 10SM CLR 06/M03 A3055 RMK AO2 SLP344 T00561033
Loading
Personal Weather Stations






























Interactive Weather Map New forecast layout! Learn more

10-Day Weather Forecast

Advertisements
Track Severe Weather on mobile